sensor_id;sensor_type;location;lat;lon;timestamp;temperature;humidity
51902;DHT22;37929;53.218;6.548;2023-01-13T00:01:09;8.90;99.90
51902;DHT22;37929;53.218;6.548;2023-01-13T00:03:39;8.90;99.90
51902;DHT22;37929;53.218;6.548;2023-01-13T00:06:06;8.80;99.90
51902;DHT22;37929;53.218;6.548;2023-01-13T00:08:56;8.80;99.90
51902;DHT22;37929;53.218;6.548;2023-01-13T00:11:56;8.60;99.90
51902;DHT22;37929;53.218;6.548;2023-01-13T00:14:25;8.60;99.90
51902;DHT22;37929;53.218;6.548;2023-01-13T00:16:54;8.60;99.90
51902;DHT22;37929;53.218;6.548;2023-01-13T00:19:24;8.80;99.90
51902;DHT22;37929;53.218;6.548;2023-01-13T00:21:53;8.50;99.90
51902;DHT22;37929;53.218;6.548;2023-01-13T00:24:21;8.50;99.90
51902;DHT22;37929;53.218;6.548;2023-01-13T00:26:47;8.40;99.90
51902;DHT22;37929;53.218;6.548;2023-01-13T00:29:13;8.40;99.90
51902;DHT22;37929;53.218;6.548;2023-01-13T00:31:39;8.40;99.90
51902;DHT22;37929;53.218;6.548;2023-01-13T00:34:05;8.40;99.90
51902;DHT22;37929;53.218;6.548;2023-01-13T00:36:31;8.30;99.90
51902;DHT22;37929;53.218;6.548;2023-01-13T00:39:00;8.30;99.90
51902;DHT22;37929;53.218;6.548;2023-01-13T00:41:32;8.30;99.90
51902;DHT22;37929;53.218;6.548;2023-01-13T00:44:21;8.30;99.90
51902;DHT22;37929;53.218;6.548;2023-01-13T00:46:50;8.30;99.90
51902;DHT22;37929;53.218;6.548;2023-01-13T00:49:19;8.30;99.90
51902;DHT22;37929;53.218;6.548;2023-01-13T00:51:45;8.30;99.90
51902;DHT22;37929;53.218;6.548;2023-01-13T00:54:10;8.20;99.90
51902;DHT22;37929;53.218;6.548;2023-01-13T00:56:42;8.20;99.90
51902;DHT22;37929;53.218;6.548;2023-01-13T00:59:10;8.20;99.90
51902;DHT22;37929;53.218;6.548;2023-01-13T01:01:39;8.20;99.90
51902;DHT22;37929;53.218;6.548;2023-01-13T01:04:08;8.20;99.90
51902;DHT22;37929;53.218;6.548;2023-01-13T01:06:35;8.20;99.90
51902;DHT22;37929;53.218;6.548;2023-01-13T01:09:04;8.20;99.90
51902;DHT22;37929;53.218;6.548;2023-01-13T01:11:31;8.20;99.90
51902;DHT22;37929;53.218;6.548;2023-01-13T01:14:02;8.20;99.90
51902;DHT22;37929;53.218;6.548;2023-01-13T01:16:32;8.20;99.90
51902;DHT22;37929;53.218;6.548;2023-01-13T01:19:01;8.50;99.90
51902;DHT22;37929;53.218;6.548;2023-01-13T01:21:30;8.20;99.90
51902;DHT22;37929;53.218;6.548;2023-01-13T01:24:00;8.10;99.90
51902;DHT22;37929;53.218;6.548;2023-01-13T01:26:27;8.10;99.90
51902;DHT22;37929;53.218;6.548;2023-01-13T01:28:56;8.10;99.90
51902;DHT22;37929;53.218;6.548;2023-01-13T01:31:26;8.10;99.90
51902;DHT22;37929;53.218;6.548;2023-01-13T01:34:10;8.10;99.90
51902;DHT22;37929;53.218;6.548;2023-01-13T01:36:36;7.30;99.90
51902;DHT22;37929;53.218;6.548;2023-01-13T01:39:06;8.00;99.90
51902;DHT22;37929;53.218;6.548;2023-01-13T01:41:38;8.10;99.90
51902;DHT22;37929;53.218;6.548;2023-01-13T01:47:16;8.10;99.90
51902;DHT22;37929;53.218;6.548;2023-01-13T01:49:49;8.20;99.90
51902;DHT22;37929;53.218;6.548;2023-01-13T01:52:32;8.80;99.90
51902;DHT22;37929;53.218;6.548;2023-01-13T01:55:20;8.20;99.90
51902;DHT22;37929;53.218;6.548;2023-01-13T01:57:56;8.20;99.90
51902;DHT22;37929;53.218;6.548;2023-01-13T02:00:24;8.10;99.90
51902;DHT22;37929;53.218;6.548;2023-01-13T02:02:51;8.10;99.90
51902;DHT22;37929;53.218;6.548;2023-01-13T02:05:18;8.00;99.90
51902;DHT22;37929;53.218;6.548;2023-01-13T02:07:47;8.00;99.90
51902;DHT22;37929;53.218;6.548;2023-01-13T02:10:17;8.00;99.90
51902;DHT22;37929;53.218;6.548;2023-01-13T02:12:44;8.10;99.90
51902;DHT22;37929;53.218;6.548;2023-01-13T02:15:15;8.10;99.90
51902;DHT22;37929;53.218;6.548;2023-01-13T02:18:23;8.10;99.90
51902;DHT22;37929;53.218;6.548;2023-01-13T02:23:53;8.20;99.90
51902;DHT22;37929;53.218;6.548;2023-01-13T02:32:48;8.20;99.90
51902;DHT22;37929;53.218;6.548;2023-01-13T02:37:50;8.20;99.90
51902;DHT22;37929;53.218;6.548;2023-01-13T02:40:37;8.20;99.90
51902;DHT22;37929;53.218;6.548;2023-01-13T02:43:36;8.20;99.90
51902;DHT22;37929;53.218;6.548;2023-01-13T02:46:28;8.20;99.90
51902;DHT22;37929;53.218;6.548;2023-01-13T02:48:58;8.20;99.90
51902;DHT22;37929;53.218;6.548;2023-01-13T02:51:28;8.20;99.90
51902;DHT22;37929;53.218;6.548;2023-01-13T02:54:07;8.20;99.90
51902;DHT22;37929;53.218;6.548;2023-01-13T02:56:41;8.20;99.90
51902;DHT22;37929;53.218;6.548;2023-01-13T02:59:08;8.20;99.90
51902;DHT22;37929;53.218;6.548;2023-01-13T03:01:34;8.50;99.90
51902;DHT22;37929;53.218;6.548;2023-01-13T03:04:14;8.30;99.90
51902;DHT22;37929;53.218;6.548;2023-01-13T03:12:49;8.40;99.90
51902;DHT22;37929;53.218;6.548;2023-01-13T03:15:29;8.40;99.90
51902;DHT22;37929;53.218;6.548;2023-01-13T03:20:48;8.30;99.90
51902;DHT22;37929;53.218;6.548;2023-01-13T03:23:35;8.30;99.90
51902;DHT22;37929;53.218;6.548;2023-01-13T03:26:26;8.20;99.90
51902;DHT22;37929;53.218;6.548;2023-01-13T03:31:58;8.20;99.90
51902;DHT22;37929;53.218;6.548;2023-01-13T03:34:30;8.20;99.90
51902;DHT22;37929;53.218;6.548;2023-01-13T03:37:01;8.20;99.90
51902;DHT22;37929;53.218;6.548;2023-01-13T03:39:32;8.20;99.90
51902;DHT22;37929;53.218;6.548;2023-01-13T03:42:07;8.60;99.90
51902;DHT22;37929;53.218;6.548;2023-01-13T03:45:19;8.20;99.90
51902;DHT22;37929;53.218;6.548;2023-01-13T03:47:33;8.30;99.90
51902;DHT22;37929;53.218;6.548;2023-01-13T03:50:16;8.40;99.90
51902;DHT22;37929;53.218;6.548;2023-01-13T03:52:48;8.40;99.90
51902;DHT22;37929;53.218;6.548;2023-01-13T03:55:18;8.30;99.90
51902;DHT22;37929;53.218;6.548;2023-01-13T04:00:34;8.30;99.90
51902;DHT22;37929;53.218;6.548;2023-01-13T04:03:09;9.00;99.90
51902;DHT22;37929;53.218;6.548;2023-01-13T04:05:39;8.40;99.90
51902;DHT22;37929;53.218;6.548;2023-01-13T04:08:22;8.30;99.90
51902;DHT22;37929;53.218;6.548;2023-01-13T04:11:09;8.30;99.90
51902;DHT22;37929;53.218;6.548;2023-01-13T04:13:39;8.30;99.90
51902;DHT22;37929;53.218;6.548;2023-01-13T04:16:07;8.30;99.90
51902;DHT22;37929;53.218;6.548;2023-01-13T04:18:36;8.20;99.90
51902;DHT22;37929;53.218;6.548;2023-01-13T04:21:05;8.20;99.90
51902;DHT22;37929;53.218;6.548;2023-01-13T04:23:32;8.20;99.90
51902;DHT22;37929;53.218;6.548;2023-01-13T04:25:58;8.30;99.90
51902;DHT22;37929;53.218;6.548;2023-01-13T04:28:24;8.20;99.90
51902;DHT22;37929;53.218;6.548;2023-01-13T04:30:50;8.20;99.90
51902;DHT22;37929;53.218;6.548;2023-01-13T04:33:17;8.20;99.90
51902;DHT22;37929;53.218;6.548;2023-01-13T04:35:44;8.20;99.90
51902;DHT22;37929;53.218;6.548;2023-01-13T04:38:12;8.80;99.90
51902;DHT22;37929;53.218;6.548;2023-01-13T04:40:40;8.70;99.90
51902;DHT22;37929;53.218;6.548;2023-01-13T04:43:06;8.20;99.90
51902;DHT22;37929;53.218;6.548;2023-01-13T04:45:32;8.20;99.90
51902;DHT22;37929;53.218;6.548;2023-01-13T04:47:58;8.20;99.90
51902;DHT22;37929;53.218;6.548;2023-01-13T04:50:25;8.80;99.90
51902;DHT22;37929;53.218;6.548;2023-01-13T04:52:51;8.30;99.90
51902;DHT22;37929;53.218;6.548;2023-01-13T04:55:18;8.30;99.90
51902;DHT22;37929;53.218;6.548;2023-01-13T04:57:45;8.30;99.90
51902;DHT22;37929;53.218;6.548;2023-01-13T05:00:13;8.40;99.90
51902;DHT22;37929;53.218;6.548;2023-01-13T05:02:39;8.40;99.90
51902;DHT22;37929;53.218;6.548;2023-01-13T05:05:05;8.40;99.90
51902;DHT22;37929;53.218;6.548;2023-01-13T05:07:31;8.40;99.90
51902;DHT22;37929;53.218;6.548;2023-01-13T05:09:57;8.40;99.90
51902;DHT22;37929;53.218;6.548;2023-01-13T05:12:23;8.70;99.90
51902;DHT22;37929;53.218;6.548;2023-01-13T05:15:08;8.50;99.90
51902;DHT22;37929;53.218;6.548;2023-01-13T05:17:54;8.50;99.90
51902;DHT22;37929;53.218;6.548;2023-01-13T05:20:20;8.50;99.90
51902;DHT22;37929;53.218;6.548;2023-01-13T05:22:46;8.50;99.90
51902;DHT22;37929;53.218;6.548;2023-01-13T05:25:30;8.80;99.90
51902;DHT22;37929;53.218;6.548;2023-01-13T05:27:57;8.50;99.90
51902;DHT22;37929;53.218;6.548;2023-01-13T05:30:29;9.40;99.90
51902;DHT22;37929;53.218;6.548;2023-01-13T05:32:55;8.50;99.90
51902;DHT22;37929;53.218;6.548;2023-01-13T05:35:21;8.50;99.90
51902;DHT22;37929;53.218;6.548;2023-01-13T05:37:47;8.60;99.90
51902;DHT22;37929;53.218;6.548;2023-01-13T05:40:15;8.90;99.90
51902;DHT22;37929;53.218;6.548;2023-01-13T05:43:12;8.60;99.90
51902;DHT22;37929;53.218;6.548;2023-01-13T05:45:54;8.60;99.90
51902;DHT22;37929;53.218;6.548;2023-01-13T05:48:22;8.50;99.90
51902;DHT22;37929;53.218;6.548;2023-01-13T05:50:48;8.60;99.90
51902;DHT22;37929;53.218;6.548;2023-01-13T05:53:16;8.80;99.90
51902;DHT22;37929;53.218;6.548;2023-01-13T05:55:45;8.60;99.90
51902;DHT22;37929;53.218;6.548;2023-01-13T05:58:13;8.60;99.90
51902;DHT22;37929;53.218;6.548;2023-01-13T06:00:39;8.50;99.90
51902;DHT22;37929;53.218;6.548;2023-01-13T06:03:05;8.50;99.90
51902;DHT22;37929;53.218;6.548;2023-01-13T06:05:32;8.50;99.90
51902;DHT22;37929;53.218;6.548;2023-01-13T06:07:59;8.50;99.90
51902;DHT22;37929;53.218;6.548;2023-01-13T06:10:25;8.50;99.90
51902;DHT22;37929;53.218;6.548;2023-01-13T06:12:52;8.80;99.90
51902;DHT22;37929;53.218;6.548;2023-01-13T06:15:18;8.90;99.90
51902;DHT22;37929;53.218;6.548;2023-01-13T06:17:44;8.50;99.90
51902;DHT22;37929;53.218;6.548;2023-01-13T06:20:11;8.50;99.90
51902;DHT22;37929;53.218;6.548;2023-01-13T06:22:38;8.40;99.90
51902;DHT22;37929;53.218;6.548;2023-01-13T06:28:02;8.40;99.90
51902;DHT22;37929;53.218;6.548;2023-01-13T06:30:35;8.50;99.90
51902;DHT22;37929;53.218;6.548;2023-01-13T06:33:07;8.50;99.90
51902;DHT22;37929;53.218;6.548;2023-01-13T06:35:35;8.50;99.90
51902;DHT22;37929;53.218;6.548;2023-01-13T06:38:06;8.80;99.90
51902;DHT22;37929;53.218;6.548;2023-01-13T06:40:33;8.50;99.90
51902;DHT22;37929;53.218;6.548;2023-01-13T06:42:59;8.50;99.90
51902;DHT22;37929;53.218;6.548;2023-01-13T06:45:50;8.40;99.90
51902;DHT22;37929;53.218;6.548;2023-01-13T06:48:19;8.30;99.90
51902;DHT22;37929;53.218;6.548;2023-01-13T06:50:44;8.20;99.90
51902;DHT22;37929;53.218;6.548;2023-01-13T06:53:10;8.10;99.90
51902;DHT22;37929;53.218;6.548;2023-01-13T06:55:36;8.10;99.90
51902;DHT22;37929;53.218;6.548;2023-01-13T06:58:02;8.00;99.90
51902;DHT22;37929;53.218;6.548;2023-01-13T07:00:28;7.90;99.90
51902;DHT22;37929;53.218;6.548;2023-01-13T07:03:04;8.10;99.90
51902;DHT22;37929;53.218;6.548;2023-01-13T07:05:30;7.80;99.90
51902;DHT22;37929;53.218;6.548;2023-01-13T07:07:57;8.20;99.90
51902;DHT22;37929;53.218;6.548;2023-01-13T07:10:22;7.80;99.90
51902;DHT22;37929;53.218;6.548;2023-01-13T07:12:48;8.20;99.90
51902;DHT22;37929;53.218;6.548;2023-01-13T07:15:33;8.10;99.90
51902;DHT22;37929;53.218;6.548;2023-01-13T07:17:59;7.60;99.90
51902;DHT22;37929;53.218;6.548;2023-01-13T07:20:25;7.60;99.90
51902;DHT22;37929;53.218;6.548;2023-01-13T07:22:55;7.60;99.90
51902;DHT22;37929;53.218;6.548;2023-01-13T07:25:21;8.00;99.90
51902;DHT22;37929;53.218;6.548;2023-01-13T07:27:47;7.50;99.90
51902;DHT22;37929;53.218;6.548;2023-01-13T07:30:13;7.60;99.90
51902;DHT22;37929;53.218;6.548;2023-01-13T07:32:39;7.40;99.90
51902;DHT22;37929;53.218;6.548;2023-01-13T07:35:06;7.40;99.90
51902;DHT22;37929;53.218;6.548;2023-01-13T07:37:33;7.40;99.90
51902;DHT22;37929;53.218;6.548;2023-01-13T07:40:00;7.30;99.90
51902;DHT22;37929;53.218;6.548;2023-01-13T07:42:26;7.30;99.90
51902;DHT22;37929;53.218;6.548;2023-01-13T07:45:10;7.20;99.90
51902;DHT22;37929;53.218;6.548;2023-01-13T07:47:36;7.20;99.90
51902;DHT22;37929;53.218;6.548;2023-01-13T07:50:02;7.70;99.90
51902;DHT22;37929;53.218;6.548;2023-01-13T07:52:30;7.30;99.90
51902;DHT22;37929;53.218;6.548;2023-01-13T07:54:56;7.20;99.90
51902;DHT22;37929;53.218;6.548;2023-01-13T07:57:22;7.30;99.90
51902;DHT22;37929;53.218;6.548;2023-01-13T07:59:48;7.80;99.90
51902;DHT22;37929;53.218;6.548;2023-01-13T08:02:13;7.30;99.90
51902;DHT22;37929;53.218;6.548;2023-01-13T08:04:39;7.30;99.90
51902;DHT22;37929;53.218;6.548;2023-01-13T08:07:05;7.40;99.90
51902;DHT22;37929;53.218;6.548;2023-01-13T08:09:31;7.40;99.90
51902;DHT22;37929;53.218;6.548;2023-01-13T08:11:57;7.40;99.90
51902;DHT22;37929;53.218;6.548;2023-01-13T08:14:42;7.50;99.90
51902;DHT22;37929;53.218;6.548;2023-01-13T08:17:08;7.50;99.90
51902;DHT22;37929;53.218;6.548;2023-01-13T08:19:34;7.50;99.90
51902;DHT22;37929;53.218;6.548;2023-01-13T08:22:00;7.50;99.90
51902;DHT22;37929;53.218;6.548;2023-01-13T08:24:25;8.10;99.90
51902;DHT22;37929;53.218;6.548;2023-01-13T08:26:54;7.60;99.90
51902;DHT22;37929;53.218;6.548;2023-01-13T08:29:20;8.30;99.90
51902;DHT22;37929;53.218;6.548;2023-01-13T08:31:46;7.70;99.90
51902;DHT22;37929;53.218;6.548;2023-01-13T08:34:11;8.00;99.90
51902;DHT22;37929;53.218;6.548;2023-01-13T08:36:37;7.80;99.90
51902;DHT22;37929;53.218;6.548;2023-01-13T08:39:03;7.80;99.90
51902;DHT22;37929;53.218;6.548;2023-01-13T08:41:29;7.80;99.90
51902;DHT22;37929;53.218;6.548;2023-01-13T08:44:13;7.80;99.90
51902;DHT22;37929;53.218;6.548;2023-01-13T08:46:40;7.90;99.90
51902;DHT22;37929;53.218;6.548;2023-01-13T08:49:06;8.50;99.90
51902;DHT22;37929;53.218;6.548;2023-01-13T08:51:31;7.90;99.90
51902;DHT22;37929;53.218;6.548;2023-01-13T08:53:57;8.00;99.90
51902;DHT22;37929;53.218;6.548;2023-01-13T08:56:23;7.90;99.90
51902;DHT22;37929;53.218;6.548;2023-01-13T08:58:49;7.90;99.90
51902;DHT22;37929;53.218;6.548;2023-01-13T09:01:20;8.30;99.90
51902;DHT22;37929;53.218;6.548;2023-01-13T09:03:49;7.90;99.90
51902;DHT22;37929;53.218;6.548;2023-01-13T09:06:15;7.90;99.90
51902;DHT22;37929;53.218;6.548;2023-01-13T09:08:41;8.40;99.90
51902;DHT22;37929;53.218;6.548;2023-01-13T09:11:19;7.80;99.90
51902;DHT22;37929;53.218;6.548;2023-01-13T09:14:10;7.60;99.90
51902;DHT22;37929;53.218;6.548;2023-01-13T09:16:36;7.60;99.90
51902;DHT22;37929;53.218;6.548;2023-01-13T09:19:02;7.60;99.90
51902;DHT22;37929;53.218;6.548;2023-01-13T09:21:27;7.60;99.90
51902;DHT22;37929;53.218;6.548;2023-01-13T09:23:53;7.60;99.90
51902;DHT22;37929;53.218;6.548;2023-01-13T09:26:20;8.10;99.90
51902;DHT22;37929;53.218;6.548;2023-01-13T09:28:46;7.50;99.90
51902;DHT22;37929;53.218;6.548;2023-01-13T09:31:12;7.40;99.90
51902;DHT22;37929;53.218;6.548;2023-01-13T09:33:38;7.40;99.90
51902;DHT22;37929;53.218;6.548;2023-01-13T09:36:22;7.30;99.90
51902;DHT22;37929;53.218;6.548;2023-01-13T09:38:53;7.70;99.90
51902;DHT22;37929;53.218;6.548;2023-01-13T09:41:27;7.20;99.90
51902;DHT22;37929;53.218;6.548;2023-01-13T09:44:26;7.20;99.90
51902;DHT22;37929;53.218;6.548;2023-01-13T09:46:57;7.60;99.90
51902;DHT22;37929;53.218;6.548;2023-01-13T09:49:37;7.50;99.90
51902;DHT22;37929;53.218;6.548;2023-01-13T09:52:13;7.50;99.90
51902;DHT22;37929;53.218;6.548;2023-01-13T09:57:19;7.30;99.90
51902;DHT22;37929;53.218;6.548;2023-01-13T09:59:47;7.20;99.90
51902;DHT22;37929;53.218;6.548;2023-01-13T10:02:45;7.20;99.90
51902;DHT22;37929;53.218;6.548;2023-01-13T10:05:13;7.20;99.90
51902;DHT22;37929;53.218;6.548;2023-01-13T10:08:00;7.10;99.90
51902;DHT22;37929;53.218;6.548;2023-01-13T10:10:35;7.10;99.90
51902;DHT22;37929;53.218;6.548;2023-01-13T10:13:20;7.10;99.90
51902;DHT22;37929;53.218;6.548;2023-01-13T10:16:19;7.10;99.90
51902;DHT22;37929;53.218;6.548;2023-01-13T10:27:31;7.20;99.90
51902;DHT22;37929;53.218;6.548;2023-01-13T10:29:57;7.30;99.90
51902;DHT22;37929;53.218;6.548;2023-01-13T10:32:23;7.30;99.90
51902;DHT22;37929;53.218;6.548;2023-01-13T10:34:50;7.40;99.90
51902;DHT22;37929;53.218;6.548;2023-01-13T10:37:24;7.30;99.90
51902;DHT22;37929;53.218;6.548;2023-01-13T10:39:54;7.30;99.90
51902;DHT22;37929;53.218;6.548;2023-01-13T10:42:22;7.90;99.90
51902;DHT22;37929;53.218;6.548;2023-01-13T10:44:51;7.30;99.90
51902;DHT22;37929;53.218;6.548;2023-01-13T10:47:27;7.40;99.90
51902;DHT22;37929;53.218;6.548;2023-01-13T10:52:37;7.40;99.90
51902;DHT22;37929;53.218;6.548;2023-01-13T10:55:30;7.40;99.90
51902;DHT22;37929;53.218;6.548;2023-01-13T10:58:12;7.40;99.90
51902;DHT22;37929;53.218;6.548;2023-01-13T11:00:42;7.40;99.90
51902;DHT22;37929;53.218;6.548;2023-01-13T11:03:14;7.40;99.90
51902;DHT22;37929;53.218;6.548;2023-01-13T11:05:54;7.40;99.90
51902;DHT22;37929;53.218;6.548;2023-01-13T11:08:26;7.50;99.90
51902;DHT22;37929;53.218;6.548;2023-01-13T11:10:57;7.50;99.90
51902;DHT22;37929;53.218;6.548;2023-01-13T11:13:34;7.50;99.90
51902;DHT22;37929;53.218;6.548;2023-01-13T11:16:23;7.60;99.90
51902;DHT22;37929;53.218;6.548;2023-01-13T11:18:54;7.60;99.90
51902;DHT22;37929;53.218;6.548;2023-01-13T11:21:55;7.50;99.90
51902;DHT22;37929;53.218;6.548;2023-01-13T11:24:45;7.60;99.90
51902;DHT22;37929;53.218;6.548;2023-01-13T11:27:29;7.50;99.90
51902;DHT22;37929;53.218;6.548;2023-01-13T11:33:01;7.50;99.90
51902;DHT22;37929;53.218;6.548;2023-01-13T11:35:34;7.50;99.90
51902;DHT22;37929;53.218;6.548;2023-01-13T11:46:43;7.80;99.90
51902;DHT22;37929;53.218;6.548;2023-01-13T11:49:29;7.80;99.90
51902;DHT22;37929;53.218;6.548;2023-01-13T11:57:17;7.90;99.90
51902;DHT22;37929;53.218;6.548;2023-01-13T12:02:56;8.00;99.90
51902;DHT22;37929;53.218;6.548;2023-01-13T12:11:03;7.90;99.90
51902;DHT22;37929;53.218;6.548;2023-01-13T12:16:26;8.00;99.90
51902;DHT22;37929;53.218;6.548;2023-01-13T12:26:54;8.00;99.90
51902;DHT22;37929;53.218;6.548;2023-01-13T12:29:43;8.00;99.90
51902;DHT22;37929;53.218;6.548;2023-01-13T12:32:15;8.10;99.90
51902;DHT22;37929;53.218;6.548;2023-01-13T12:34:52;8.30;99.90
51902;DHT22;37929;53.218;6.548;2023-01-13T12:42:24;8.20;99.90
51902;DHT22;37929;53.218;6.548;2023-01-13T12:47:38;8.30;99.90
51902;DHT22;37929;53.218;6.548;2023-01-13T12:52:56;8.30;99.90
51902;DHT22;37929;53.218;6.548;2023-01-13T12:55:31;8.30;99.90
51902;DHT22;37929;53.218;6.548;2023-01-13T13:11:14;8.30;99.90
51902;DHT22;37929;53.218;6.548;2023-01-13T13:14:12;8.40;99.90
51902;DHT22;37929;53.218;6.548;2023-01-13T13:24:40;8.30;99.90
51902;DHT22;37929;53.218;6.548;2023-01-13T13:27:24;8.30;99.90
51902;DHT22;37929;53.218;6.548;2023-01-13T13:30:14;8.40;99.90
51902;DHT22;37929;53.218;6.548;2023-01-13T13:42:22;8.20;99.90
51902;DHT22;37929;53.218;6.548;2023-01-13T13:45:19;8.10;99.90
51902;DHT22;37929;53.218;6.548;2023-01-13T13:48:22;8.00;99.90
51902;DHT22;37929;53.218;6.548;2023-01-13T13:50:50;8.00;99.90
51902;DHT22;37929;53.218;6.548;2023-01-13T13:53:22;8.10;99.90
51902;DHT22;37929;53.218;6.548;2023-01-13T13:55:56;8.10;99.90
51902;DHT22;37929;53.218;6.548;2023-01-13T13:58:25;8.10;99.90
51902;DHT22;37929;53.218;6.548;2023-01-13T14:00:51;8.10;99.90
51902;DHT22;37929;53.218;6.548;2023-01-13T14:03:23;8.50;99.90
51902;DHT22;37929;53.218;6.548;2023-01-13T14:05:55;8.30;99.90
51902;DHT22;37929;53.218;6.548;2023-01-13T14:08:25;8.20;99.90
51902;DHT22;37929;53.218;6.548;2023-01-13T14:10:52;8.20;99.90
51902;DHT22;37929;53.218;6.548;2023-01-13T14:13:23;8.20;99.90
51902;DHT22;37929;53.218;6.548;2023-01-13T14:15:58;8.20;99.90
51902;DHT22;37929;53.218;6.548;2023-01-13T14:18:26;8.20;99.90
51902;DHT22;37929;53.218;6.548;2023-01-13T14:23:31;8.20;99.90
51902;DHT22;37929;53.218;6.548;2023-01-13T14:26:02;8.20;99.90
51902;DHT22;37929;53.218;6.548;2023-01-13T14:28:30;8.20;99.90
51902;DHT22;37929;53.218;6.548;2023-01-13T14:31:01;8.20;99.90
51902;DHT22;37929;53.218;6.548;2023-01-13T14:33:38;8.20;99.90
51902;DHT22;37929;53.218;6.548;2023-01-13T14:36:23;8.00;99.90
51902;DHT22;37929;53.218;6.548;2023-01-13T14:44:20;7.90;99.90
51902;DHT22;37929;53.218;6.548;2023-01-13T14:46:49;7.90;99.90
51902;DHT22;37929;53.218;6.548;2023-01-13T14:49:34;7.90;99.90
51902;DHT22;37929;53.218;6.548;2023-01-13T14:52:18;7.90;99.90
51902;DHT22;37929;53.218;6.548;2023-01-13T14:55:12;8.00;99.90
51902;DHT22;37929;53.218;6.548;2023-01-13T14:57:42;8.00;99.90
51902;DHT22;37929;53.218;6.548;2023-01-13T15:07:50;8.20;99.90
51902;DHT22;37929;53.218;6.548;2023-01-13T15:10:23;8.20;99.90
51902;DHT22;37929;53.218;6.548;2023-01-13T15:12:51;8.20;99.90
51902;DHT22;37929;53.218;6.548;2023-01-13T15:17:48;8.20;99.90
51902;DHT22;37929;53.218;6.548;2023-01-13T15:20:19;8.30;99.90
51902;DHT22;37929;53.218;6.548;2023-01-13T15:22:46;8.30;99.90
51902;DHT22;37929;53.218;6.548;2023-01-13T15:25:12;8.30;99.90
51902;DHT22;37929;53.218;6.548;2023-01-13T15:27:40;8.30;99.90
51902;DHT22;37929;53.218;6.548;2023-01-13T15:30:14;8.20;99.90
51902;DHT22;37929;53.218;6.548;2023-01-13T15:32:41;8.20;99.90
51902;DHT22;37929;53.218;6.548;2023-01-13T15:35:11;8.20;99.90
51902;DHT22;37929;53.218;6.548;2023-01-13T15:37:37;8.50;99.90
51902;DHT22;37929;53.218;6.548;2023-01-13T15:40:03;8.20;99.90
51902;DHT22;37929;53.218;6.548;2023-01-13T15:42:29;8.10;99.90
51902;DHT22;37929;53.218;6.548;2023-01-13T15:45:13;8.10;99.90
51902;DHT22;37929;53.218;6.548;2023-01-13T15:47:58;8.00;99.90
51902;DHT22;37929;53.218;6.548;2023-01-13T15:50:24;8.30;99.90
51902;DHT22;37929;53.218;6.548;2023-01-13T15:52:50;8.10;99.90
51902;DHT22;37929;53.218;6.548;2023-01-13T15:55:16;8.00;99.90
51902;DHT22;37929;53.218;6.548;2023-01-13T15:57:46;7.70;99.90
51902;DHT22;37929;53.218;6.548;2023-01-13T16:00:16;7.30;99.90
51902;DHT22;37929;53.218;6.548;2023-01-13T16:02:42;7.00;99.90
51902;DHT22;37929;53.218;6.548;2023-01-13T16:05:11;6.90;99.90
51902;DHT22;37929;53.218;6.548;2023-01-13T16:07:37;7.20;99.90
51902;DHT22;37929;53.218;6.548;2023-01-13T16:10:18;7.20;99.90
51902;DHT22;37929;53.218;6.548;2023-01-13T16:12:44;6.90;99.90
51902;DHT22;37929;53.218;6.548;2023-01-13T16:15:18;7.20;99.90
51902;DHT22;37929;53.218;6.548;2023-01-13T16:17:54;7.40;99.90
51902;DHT22;37929;53.218;6.548;2023-01-13T16:20:21;7.50;99.90
51902;DHT22;37929;53.218;6.548;2023-01-13T16:22:47;8.00;99.90
51902;DHT22;37929;53.218;6.548;2023-01-13T16:25:20;7.50;99.90
51902;DHT22;37929;53.218;6.548;2023-01-13T16:27:46;7.40;99.90
51902;DHT22;37929;53.218;6.548;2023-01-13T16:30:23;7.80;99.90
51902;DHT22;37929;53.218;6.548;2023-01-13T16:32:49;7.30;99.90
51902;DHT22;37929;53.218;6.548;2023-01-13T16:35:15;7.10;99.90
51902;DHT22;37929;53.218;6.548;2023-01-13T16:37:44;6.90;99.90
51902;DHT22;37929;53.218;6.548;2023-01-13T16:40:23;6.80;99.90
51902;DHT22;37929;53.218;6.548;2023-01-13T16:42:49;6.90;99.90
51902;DHT22;37929;53.218;6.548;2023-01-13T16:45:16;7.00;99.90
51902;DHT22;37929;53.218;6.548;2023-01-13T16:47:41;7.00;99.90
51902;DHT22;37929;53.218;6.548;2023-01-13T16:53:00;7.10;99.90
51902;DHT22;37929;53.218;6.548;2023-01-13T16:55:26;7.60;99.90
51902;DHT22;37929;53.218;6.548;2023-01-13T16:57:52;7.20;99.90
51902;DHT22;37929;53.218;6.548;2023-01-13T17:00:18;7.30;99.90
51902;DHT22;37929;53.218;6.548;2023-01-13T17:02:44;7.30;99.90
51902;DHT22;37929;53.218;6.548;2023-01-13T17:05:12;7.20;99.90
51902;DHT22;37929;53.218;6.548;2023-01-13T17:07:42;7.20;99.90
51902;DHT22;37929;53.218;6.548;2023-01-13T17:10:14;7.20;99.90
51902;DHT22;37929;53.218;6.548;2023-01-13T17:12:40;7.70;99.90
51902;DHT22;37929;53.218;6.548;2023-01-13T17:15:06;7.20;99.90
51902;DHT22;37929;53.218;6.548;2023-01-13T17:17:33;7.20;99.90
51902;DHT22;37929;53.218;6.548;2023-01-13T17:19:59;8.00;99.90
51902;DHT22;37929;53.218;6.548;2023-01-13T17:22:25;7.20;99.90
51902;DHT22;37929;53.218;6.548;2023-01-13T17:24:51;7.30;99.90
51902;DHT22;37929;53.218;6.548;2023-01-13T17:27:16;7.20;99.90
51902;DHT22;37929;53.218;6.548;2023-01-13T17:29:43;7.20;99.90
51902;DHT22;37929;53.218;6.548;2023-01-13T17:32:17;7.30;99.90
51902;DHT22;37929;53.218;6.548;2023-01-13T17:34:43;7.30;99.90
51902;DHT22;37929;53.218;6.548;2023-01-13T17:37:09;7.20;99.90
51902;DHT22;37929;53.218;6.548;2023-01-13T17:39:42;7.20;99.90
51902;DHT22;37929;53.218;6.548;2023-01-13T17:42:09;7.30;99.90
51902;DHT22;37929;53.218;6.548;2023-01-13T17:44:39;7.90;99.90
51902;DHT22;37929;53.218;6.548;2023-01-13T17:47:05;7.40;99.90
51902;DHT22;37929;53.218;6.548;2023-01-13T17:49:31;7.40;99.90
51902;DHT22;37929;53.218;6.548;2023-01-13T17:52:00;7.30;99.90
51902;DHT22;37929;53.218;6.548;2023-01-13T17:54:25;7.60;99.90
51902;DHT22;37929;53.218;6.548;2023-01-13T17:56:51;7.50;99.90
51902;DHT22;37929;53.218;6.548;2023-01-13T17:59:18;8.00;99.90
51902;DHT22;37929;53.218;6.548;2023-01-13T18:01:50;7.40;99.90
51902;DHT22;37929;53.218;6.548;2023-01-13T18:04:22;7.40;99.90
51902;DHT22;37929;53.218;6.548;2023-01-13T18:06:49;7.50;99.90
51902;DHT22;37929;53.218;6.548;2023-01-13T18:09:18;7.50;99.90
51902;DHT22;37929;53.218;6.548;2023-01-13T18:11:48;8.30;99.90
51902;DHT22;37929;53.218;6.548;2023-01-13T18:14:14;7.60;99.90
51902;DHT22;37929;53.218;6.548;2023-01-13T18:16:40;8.00;99.90
51902;DHT22;37929;53.218;6.548;2023-01-13T18:19:07;7.60;99.90
51902;DHT22;37929;53.218;6.548;2023-01-13T18:21:54;7.60;99.90
51902;DHT22;37929;53.218;6.548;2023-01-13T18:24:47;7.60;99.90
51902;DHT22;37929;53.218;6.548;2023-01-13T18:27:36;7.10;99.90
51902;DHT22;37929;53.218;6.548;2023-01-13T18:30:05;7.50;99.90
51902;DHT22;37929;53.218;6.548;2023-01-13T18:32:34;7.60;99.90
51902;DHT22;37929;53.218;6.548;2023-01-13T18:35:02;7.50;99.90
51902;DHT22;37929;53.218;6.548;2023-01-13T18:37:29;7.60;99.90